createdAt,value
2023-04-13T00:01:40.801Z,94757.44
2023-04-13T00:04:26.822Z,94748.53
2023-04-13T00:07:14.914Z,94760.81
2023-04-13T00:10:03.370Z,94760.59
2023-04-13T00:12:49.210Z,94760.81
2023-04-13T00:15:39.244Z,94752.59
2023-04-13T00:18:24.186Z,94744.06
2023-04-13T00:21:09.700Z,94747.88
2023-04-13T00:23:54.914Z,94739.97
2023-04-13T00:26:40.233Z,94744.41
2023-04-13T00:29:25.539Z,94738.56
2023-04-13T00:32:10.915Z,94737.94
2023-04-13T00:34:56.305Z,94737.94
2023-04-13T00:37:43.128Z,94750.25
2023-04-13T00:40:30.279Z,94749.25
2023-04-13T00:43:16.237Z,94737.97
2023-04-13T00:46:01.848Z,94736.38
2023-04-13T00:48:48.424Z,94742.16
2023-04-13T00:51:34.353Z,94747.22
2023-04-13T00:54:19.548Z,94744.75
2023-04-13T00:57:05.573Z,94741.56
2023-04-13T00:59:52.851Z,94742.16
2023-04-13T01:02:42.672Z,94736.94
2023-04-13T01:05:35.423Z,94736.56
2023-04-13T01:08:36.157Z,94737.16
2023-04-13T01:11:54.189Z,94726.09
2023-04-13T01:14:56.126Z,94737.16
2023-04-13T01:17:45.066Z,94734.44
2023-04-13T01:20:31.918Z,94736.66
2023-04-13T01:23:29.732Z,94736.41
2023-04-13T01:26:17.272Z,94730.38
2023-04-13T01:29:02.756Z,94738.66
2023-04-13T01:31:49.383Z,94737.09
2023-04-13T01:34:34.970Z,94745.59
2023-04-13T01:37:20.929Z,94747.00
2023-04-13T01:40:10.009Z,94746.03
2023-04-13T01:42:56.128Z,94748.84
2023-04-13T01:45:49.687Z,94755.88
2023-04-13T01:48:40.475Z,94753.03
2023-04-13T01:51:32.264Z,94751.03
2023-04-13T01:54:25.754Z,94749.44
2023-04-13T01:57:12.798Z,94755.06
2023-04-13T01:59:58.797Z,94757.44
2023-04-13T02:02:45.341Z,94756.81
2023-04-13T02:05:32.182Z,94756.25
2023-04-13T02:08:20.749Z,94751.88
2023-04-13T02:11:07.795Z,94757.13
2023-04-13T02:13:53.583Z,94761.53
2023-04-13T02:16:39.083Z,94752.69
2023-04-13T02:19:24.896Z,94759.53
2023-04-13T02:22:10.182Z,94755.50
2023-04-13T02:24:56.698Z,94745.84
2023-04-13T02:27:42.228Z,94753.28
2023-04-13T02:30:28.126Z,94761.97
2023-04-13T02:33:13.509Z,94751.94
2023-04-13T02:35:59.425Z,94748.31
2023-04-13T02:38:44.918Z,94739.81
2023-04-13T02:41:30.215Z,94748.69
2023-04-13T02:44:15.884Z,94745.69
2023-04-13T02:47:01.474Z,94741.28
2023-04-13T02:49:46.984Z,94738.47
2023-04-13T02:52:32.024Z,94742.63
2023-04-13T02:55:18.062Z,94741.78
2023-04-13T02:58:04.773Z,94753.03
2023-04-13T03:00:50.584Z,94754.59
2023-04-13T03:03:35.830Z,94758.59
2023-04-13T03:06:24.190Z,94756.34
2023-04-13T03:09:10.080Z,94762.56
2023-04-13T03:11:56.577Z,94755.72
2023-04-13T03:14:41.661Z,94761.38
2023-04-13T03:17:28.324Z,94761.22
2023-04-13T03:20:15.442Z,94763.06
2023-04-13T03:23:01.953Z,94767.91
2023-04-13T03:25:47.260Z,94756.47
2023-04-13T03:28:32.588Z,94756.81
2023-04-13T03:31:18.136Z,94761.81
2023-04-13T03:34:03.282Z,94762.44
2023-04-13T03:36:49.102Z,94769.53
2023-04-13T03:39:34.425Z,94766.53
2023-04-13T03:42:19.601Z,94766.72
2023-04-13T03:45:06.650Z,94769.53
2023-04-13T03:47:52.454Z,94768.28
2023-04-13T03:50:37.632Z,94766.69
2023-04-13T03:53:23.120Z,94770.28
2023-04-13T03:56:08.738Z,94759.56
2023-04-13T03:58:56.989Z,94764.19
2023-04-13T04:01:42.097Z,94767.41
2023-04-13T04:04:27.649Z,94772.88
2023-04-13T04:07:13.407Z,94770.28
2023-04-13T04:09:58.708Z,94773.91
2023-04-13T04:12:44.124Z,94777.69
2023-04-13T04:15:29.370Z,94779.13
2023-04-13T04:18:14.702Z,94777.88
2023-04-13T04:21:02.950Z,94776.28
2023-04-13T04:23:48.511Z,94777.88
2023-04-13T04:26:33.491Z,94788.72
2023-04-13T04:29:36.860Z,94776.63
2023-04-13T04:32:24.099Z,94783.13
2023-04-13T04:35:12.160Z,94781.94
2023-04-13T04:37:58.081Z,94783.75
2023-04-13T04:40:45.217Z,94783.34
2023-04-13T04:43:30.506Z,94786.78
2023-04-13T04:46:17.039Z,94787.59
2023-04-13T04:49:02.997Z,94783.16
2023-04-13T04:51:49.054Z,94788.97
2023-04-13T04:54:34.355Z,94790.97
2023-04-13T04:57:20.684Z,94783.13
2023-04-13T05:00:18.280Z,94783.00
2023-04-13T05:03:03.350Z,94787.56
2023-04-13T05:05:48.678Z,94784.41
2023-04-13T05:08:34.616Z,94785.44
2023-04-13T05:11:20.667Z,94784.75
2023-04-13T05:14:05.720Z,94784.63
2023-04-13T05:16:51.515Z,94783.38
2023-04-13T05:19:38.659Z,94785.88
2023-04-13T05:22:24.636Z,94780.34
2023-04-13T05:25:10.535Z,94782.91
2023-04-13T05:27:56.307Z,94778.31
2023-04-13T05:30:41.546Z,94781.03
2023-04-13T05:33:26.836Z,94786.50
2023-04-13T05:36:11.911Z,94780.31
2023-04-13T05:38:58.102Z,94775.94
2023-04-13T05:41:43.422Z,94766.34
2023-04-13T05:44:28.661Z,94765.56
2023-04-13T05:47:13.550Z,94777.19
2023-04-13T05:49:58.776Z,94769.75
2023-04-13T05:52:44.139Z,94778.97
2023-04-13T05:55:29.906Z,94775.66
2023-04-13T05:58:15.630Z,94773.28
2023-04-13T06:01:01.744Z,94769.88
2023-04-13T06:03:47.671Z,94771.31
2023-04-13T06:06:33.425Z,94767.38
2023-04-13T06:09:19.205Z,94766.69
2023-04-13T06:12:04.419Z,94763.53
2023-04-13T06:14:49.868Z,94764.38
2023-04-13T06:17:35.824Z,94761.16
2023-04-13T06:20:21.708Z,94764.38
2023-04-13T06:23:07.589Z,94768.38
2023-04-13T06:25:52.808Z,94772.03
2023-04-13T06:28:38.025Z,94768.84
2023-04-13T06:31:27.454Z,94763.28
2023-04-13T06:34:13.800Z,94761.13
2023-04-13T06:36:59.433Z,94759.78
2023-04-13T06:39:44.347Z,94756.00
2023-04-13T06:42:29.674Z,94758.28
2023-04-13T06:45:14.997Z,94759.13
2023-04-13T06:48:03.279Z,94749.47
2023-04-13T06:50:48.719Z,94754.34
2023-04-13T06:53:34.149Z,94759.41
2023-04-13T06:56:19.396Z,94754.38
2023-04-13T06:59:05.122Z,94760.47
2023-04-13T07:01:51.233Z,94759.47
2023-04-13T07:04:37.666Z,94758.09
2023-04-13T07:07:23.309Z,94757.72
2023-04-13T07:10:09.304Z,94756.13
2023-04-13T07:12:54.698Z,94759.16
2023-04-13T07:15:39.862Z,94758.78
2023-04-13T07:18:25.450Z,94760.41
2023-04-13T07:21:11.028Z,94764.03
2023-04-13T07:23:56.224Z,94766.66
2023-04-13T07:26:41.865Z,94772.09
2023-04-13T07:29:27.154Z,94766.41
2023-04-13T07:32:12.486Z,94765.41
2023-04-13T07:35:01.960Z,94760.91
2023-04-13T07:37:51.451Z,94768.53
2023-04-13T07:40:37.593Z,94767.69
2023-04-13T07:43:26.354Z,94770.66
2023-04-13T07:46:12.766Z,94766.34
2023-04-13T07:48:57.886Z,94763.09
2023-04-13T07:51:43.062Z,94763.66
2023-04-13T07:54:28.259Z,94752.03
2023-04-13T07:57:13.611Z,94768.16
2023-04-13T07:59:58.916Z,94758.78
2023-04-13T08:02:44.461Z,94767.81
2023-04-13T08:05:29.621Z,94770.94
2023-04-13T08:08:15.065Z,94769.41
2023-04-13T08:11:01.403Z,94759.56
2023-04-13T08:13:46.496Z,94763.78
2023-04-13T08:16:34.452Z,94762.34
2023-04-13T08:19:19.774Z,94757.59
2023-04-13T08:22:05.266Z,94766.19
2023-04-13T08:24:50.362Z,94756.53
2023-04-13T08:27:35.858Z,94754.75
2023-04-13T08:30:21.248Z,94755.63
2023-04-13T08:33:06.352Z,94754.69
2023-04-13T08:35:52.016Z,94761.84
2023-04-13T08:38:37.145Z,94754.78
2023-04-13T08:41:23.135Z,94759.31
2023-04-13T08:44:08.705Z,94762.81
2023-04-13T08:46:54.301Z,94765.50
2023-04-13T08:49:40.701Z,94763.72
2023-04-13T08:52:27.573Z,94768.81
2023-04-13T08:55:15.682Z,94772.16
2023-04-13T08:58:03.839Z,94759.06
2023-04-13T09:00:50.291Z,94759.78
2023-04-13T09:03:43.951Z,94757.38
2023-04-13T09:06:36.078Z,94751.63
2023-04-13T09:09:21.572Z,94748.22
2023-04-13T09:12:06.713Z,94749.13
2023-04-13T09:14:52.545Z,94740.72
2023-04-13T09:17:38.320Z,94742.78
2023-04-13T09:20:23.890Z,94739.56
2023-04-13T09:23:14.854Z,94743.91
2023-04-13T09:26:06.499Z,94743.09
2023-04-13T09:28:56.107Z,94739.16
2023-04-13T09:31:43.682Z,94742.97
2023-04-13T09:34:30.451Z,94742.25
2023-04-13T09:37:15.974Z,94738.94
2023-04-13T09:40:15.216Z,94739.81
2023-04-13T09:43:02.227Z,94733.34
2023-04-13T09:45:48.359Z,94738.25
2023-04-13T09:48:33.419Z,94738.94
2023-04-13T09:51:19.004Z,94739.28
2023-04-13T09:54:05.878Z,94739.47
2023-04-13T09:56:52.909Z,94728.91
2023-04-13T09:59:38.509Z,94732.31
2023-04-13T10:02:24.352Z,94734.56
2023-04-13T10:05:10.322Z,94733.63
2023-04-13T10:07:56.436Z,94729.63
2023-04-13T10:10:41.840Z,94729.53
2023-04-13T10:13:37.877Z,94724.88
2023-04-13T10:16:26.277Z,94730.59
2023-04-13T10:19:16.028Z,94729.84
2023-04-13T10:22:04.012Z,94731.84
2023-04-13T10:24:51.253Z,94719.41
2023-04-13T10:27:36.619Z,94723.59
2023-04-13T10:30:22.838Z,94727.97
2023-04-13T10:33:10.786Z,94712.66
2023-04-13T10:36:00.124Z,94707.75
2023-04-13T10:38:46.905Z,94706.78
2023-04-13T10:41:32.475Z,94713.47
2023-04-13T10:44:17.812Z,94711.94
2023-04-13T10:47:06.171Z,94705.63
2023-04-13T10:49:52.937Z,94709.16
2023-04-13T10:52:38.057Z,94704.19
2023-04-13T10:55:25.479Z,94694.47
2023-04-13T10:58:17.206Z,94691.38
2023-04-13T11:01:03.880Z,94699.38
2023-04-13T11:04:03.704Z,94715.44
2023-04-13T11:06:51.353Z,94709.63
2023-04-13T11:09:36.851Z,94706.53
2023-04-13T11:12:21.819Z,94707.16
2023-04-13T11:15:08.701Z,94699.72
2023-04-13T11:18:02.221Z,94700.88
2023-04-13T11:20:47.450Z,94695.63
2023-04-13T11:23:34.626Z,94689.03
2023-04-13T11:26:34.809Z,94685.66
2023-04-13T11:29:23.347Z,94690.06
2023-04-13T11:32:19.078Z,94687.44
2023-04-13T11:35:13.857Z,94689.34
2023-04-13T11:37:59.664Z,94688.06
2023-04-13T11:40:45.558Z,94692.63
2023-04-13T11:43:31.049Z,94681.72
2023-04-13T11:46:25.267Z,94679.91
2023-04-13T11:49:11.419Z,94670.06
2023-04-13T11:51:56.754Z,94666.91
2023-04-13T11:54:44.723Z,94664.88
2023-04-13T11:57:29.861Z,94656.91
2023-04-13T12:00:24.568Z,94668.38
2023-04-13T12:06:08.198Z,94655.31
2023-04-13T12:09:09.003Z,94663.56
2023-04-13T12:12:20.432Z,94654.22
2023-04-13T12:18:02.644Z,94653.44
2023-04-13T12:20:54.784Z,94642.22
2023-04-13T12:23:39.977Z,94639.81
2023-04-13T12:27:17.130Z,94645.97
2023-04-13T12:29:46.474Z,94648.09
2023-04-13T12:32:32.087Z,94645.41
2023-04-13T12:35:19.433Z,94646.22
2023-04-13T12:38:05.191Z,94649.97
2023-04-13T12:40:58.351Z,94645.72
2023-04-13T12:43:43.368Z,94640.38
2023-04-13T12:46:29.103Z,94639.31
2023-04-13T12:49:14.525Z,94644.91
2023-04-13T12:51:59.776Z,94648.88
2023-04-13T12:54:45.036Z,94651.81
2023-04-13T12:57:30.383Z,94640.88
2023-04-13T13:00:17.431Z,94640.88
2023-04-13T13:03:13.688Z,94635.28
2023-04-13T13:06:00.349Z,94645.19
2023-04-13T13:08:46.036Z,94637.94
2023-04-13T13:11:31.574Z,94636.63
2023-04-13T13:14:16.664Z,94643.56
2023-04-13T13:17:03.778Z,94638.75
2023-04-13T13:19:48.950Z,94639.03
2023-04-13T13:22:34.800Z,94636.63
2023-04-13T13:25:20.416Z,94629.16
2023-04-13T13:28:13.805Z,94628.63
2023-04-13T13:31:00.625Z,94626.50
2023-04-13T13:33:45.998Z,94634.22
2023-04-13T13:36:31.252Z,94621.69
2023-04-13T13:39:18.398Z,94623.00
2023-04-13T13:42:03.597Z,94626.22
2023-04-13T13:44:49.425Z,94623.53
2023-04-13T13:47:35.519Z,94614.22
2023-04-13T13:50:21.899Z,94617.41
2023-04-13T13:53:08.856Z,94614.22
2023-04-13T13:55:54.386Z,94620.59
2023-04-13T13:58:39.543Z,94623.81
2023-04-13T14:01:25.224Z,94617.66
2023-04-13T14:04:11.628Z,94624.34
2023-04-13T14:06:57.240Z,94623.28
2023-04-13T14:09:42.231Z,94623.03
2023-04-13T14:12:27.677Z,94628.09
2023-04-13T14:15:13.693Z,94622.75
2023-04-13T14:18:09.844Z,94627.03
2023-04-13T14:20:59.674Z,94631.31
2023-04-13T14:23:45.248Z,94629.72
2023-04-13T14:26:30.745Z,94632.88
2023-04-13T14:29:15.888Z,94631.31
2023-04-13T14:32:01.173Z,94634.78
2023-04-13T14:34:47.753Z,94634.25
2023-04-13T14:37:32.774Z,94629.44
2023-04-13T14:40:21.760Z,94639.56
2023-04-13T14:43:07.775Z,94636.63
2023-04-13T14:45:55.116Z,94636.63
2023-04-13T14:48:40.455Z,94636.09
2023-04-13T14:51:25.950Z,94634.50
2023-04-13T14:54:11.012Z,94629.94
2023-04-13T14:56:56.351Z,94628.63
2023-04-13T14:59:41.400Z,94630.22
2023-04-13T15:02:28.124Z,94630.22
2023-04-13T15:05:13.860Z,94630.22
2023-04-13T15:07:59.225Z,94631.31
2023-04-13T15:10:44.405Z,94639.31
2023-04-13T15:13:29.351Z,94643.56
2023-04-13T15:16:14.686Z,94646.22
2023-04-13T15:19:00.227Z,94643.81
2023-04-13T15:21:45.512Z,94654.50
2023-04-13T15:24:31.334Z,94652.09
2023-04-13T15:27:16.247Z,94653.66
2023-04-13T15:30:03.302Z,94661.94
2023-04-13T15:32:48.845Z,94664.59
2023-04-13T15:35:35.502Z,94661.63
2023-04-13T15:38:20.930Z,94671.25
2023-04-13T15:41:09.889Z,94669.06
2023-04-13T15:43:56.311Z,94671.16
2023-04-13T15:46:41.609Z,94670.66
2023-04-13T15:49:26.853Z,94673.31
2023-04-13T15:52:11.983Z,94676.00
2023-04-13T15:54:57.381Z,94677.81
2023-04-13T15:57:42.330Z,94685.56
2023-04-13T16:00:28.050Z,94684.19
2023-04-13T16:03:13.560Z,94684.47
2023-04-13T16:05:58.876Z,94683.41
2023-04-13T16:08:43.949Z,94678.63
2023-04-13T16:11:31.708Z,94679.66
2023-04-13T16:14:17.506Z,94679.91
2023-04-13T16:17:02.710Z,94672.19
2023-04-13T16:19:50.653Z,94675.13
2023-04-13T16:22:37.488Z,94678.53
2023-04-13T16:25:22.771Z,94686.78
2023-04-13T16:28:08.102Z,94685.97
2023-04-13T16:30:53.846Z,94684.66
2023-04-13T16:33:39.248Z,94686.50
2023-04-13T16:36:25.023Z,94688.63
2023-04-13T16:39:12.020Z,94693.91
2023-04-13T16:41:58.216Z,94695.47
2023-04-13T16:44:43.949Z,94700.25
2023-04-13T16:47:30.187Z,94703.91
2023-04-13T16:50:15.602Z,94709.44
2023-04-13T16:53:00.864Z,94709.41
2023-04-13T16:55:50.497Z,94720.28
2023-04-13T16:58:35.968Z,94720.25
2023-04-13T17:01:21.381Z,94716.69
2023-04-13T17:04:06.680Z,94727.53
2023-04-13T17:06:52.162Z,94735.22
2023-04-13T17:09:37.541Z,94728.03
2023-04-13T17:12:23.043Z,94744.72
2023-04-13T17:15:09.639Z,94746.16
2023-04-13T17:17:55.111Z,94745.78
2023-04-13T17:20:40.814Z,94753.41
2023-04-13T17:23:26.120Z,94754.34
2023-04-13T17:26:11.089Z,94754.53
2023-04-13T17:28:56.376Z,94760.53
2023-04-13T17:31:41.640Z,94762.22
2023-04-13T17:34:27.120Z,94760.47
2023-04-13T17:37:12.192Z,94765.13
2023-04-13T17:39:57.789Z,94766.56
2023-04-13T17:42:42.993Z,94776.72
2023-04-13T17:45:28.586Z,94776.84
2023-04-13T17:48:14.007Z,94786.50
2023-04-13T17:50:58.877Z,94781.84
2023-04-13T17:53:44.218Z,94785.38
2023-04-13T17:56:29.431Z,94776.44
2023-04-13T17:59:16.008Z,94788.28
2023-04-13T18:02:01.352Z,94784.41
2023-04-13T18:04:47.934Z,94794.34
2023-04-13T18:07:33.353Z,94799.00
2023-04-13T18:10:18.848Z,94802.06
2023-04-13T18:13:04.124Z,94800.38
2023-04-13T18:15:50.341Z,94802.84
2023-04-13T18:18:35.652Z,94802.63
2023-04-13T18:21:20.824Z,94819.94
2023-04-13T18:24:06.533Z,94816.88
2023-04-13T18:26:52.172Z,94820.66
2023-04-13T18:29:37.932Z,94812.84
2023-04-13T18:32:23.582Z,94827.81
2023-04-13T18:35:10.161Z,94828.41
2023-04-13T18:37:55.786Z,94832.69
2023-04-13T18:40:41.744Z,94838.34
2023-04-13T18:43:27.076Z,94837.41
2023-04-13T18:46:12.538Z,94845.72
2023-04-13T18:48:57.894Z,94848.47
2023-04-13T18:51:43.883Z,94843.06
2023-04-13T18:54:29.485Z,94842.25
2023-04-13T18:57:14.620Z,94832.94
2023-04-13T18:59:59.839Z,94833.41
2023-04-13T19:02:47.687Z,94843.63
2023-04-13T19:05:35.515Z,94836.63
2023-04-13T19:08:20.728Z,94827.75
2023-04-13T19:11:05.916Z,94840.41
2023-04-13T19:13:51.336Z,94834.53
2023-04-13T19:16:37.960Z,94846.16
2023-04-13T19:19:24.142Z,94843.50
2023-04-13T19:22:09.258Z,94843.97
2023-04-13T19:24:54.566Z,94842.81
2023-04-13T19:27:44.587Z,94846.97
2023-04-13T19:30:29.780Z,94845.78
2023-04-13T19:33:15.115Z,94843.38
2023-04-13T19:36:00.312Z,94846.25
2023-04-13T19:38:45.638Z,94841.97
2023-04-13T19:41:35.662Z,94841.44
2023-04-13T19:44:20.712Z,94849.34
2023-04-13T19:47:05.989Z,94843.25
2023-04-13T19:49:51.217Z,94845.66
2023-04-13T19:52:36.473Z,94841.44
2023-04-13T19:55:21.906Z,94831.63
2023-04-13T19:58:08.040Z,94831.06
2023-04-13T20:00:54.380Z,94839.22
2023-04-13T20:03:40.410Z,94840.63
2023-04-13T20:06:27.266Z,94838.19
2023-04-13T20:09:14.310Z,94829.81
2023-04-13T20:11:59.306Z,94836.91
2023-04-13T20:14:46.308Z,94832.31
2023-04-13T20:17:31.377Z,94837.84
2023-04-13T20:20:17.925Z,94837.03
2023-04-13T20:23:03.292Z,94836.44
2023-04-13T20:25:48.721Z,94835.66
2023-04-13T20:28:33.962Z,94830.81
2023-04-13T20:31:19.201Z,94829.78
2023-04-13T20:34:04.638Z,94831.16
2023-04-13T20:36:50.321Z,94827.38
2023-04-13T20:39:36.793Z,94825.75
2023-04-13T20:42:22.504Z,94819.22
2023-04-13T20:45:14.135Z,94815.19
2023-04-13T20:51:09.658Z,94816.69
2023-04-13T20:53:55.484Z,94820.94
2023-04-13T20:56:40.645Z,94810.34
2023-04-13T20:59:26.069Z,94807.13
2023-04-13T21:02:11.869Z,94809.66
2023-04-13T21:04:57.329Z,94812.75
2023-04-13T21:07:42.924Z,94808.94
2023-04-13T21:10:28.286Z,94803.06
2023-04-13T21:13:16.149Z,94806.16
2023-04-13T21:16:01.575Z,94799.75
2023-04-13T21:18:46.924Z,94794.09
2023-04-13T21:21:32.814Z,94794.53
2023-04-13T21:24:17.773Z,94800.28
2023-04-13T21:27:03.161Z,94804.97
2023-04-13T21:29:48.447Z,94807.06
2023-04-13T21:32:33.670Z,94801.19
2023-04-13T21:35:19.526Z,94801.97
2023-04-13T21:38:05.947Z,94803.59
2023-04-13T21:40:51.434Z,94803.00
2023-04-13T21:43:36.529Z,94797.16
2023-04-13T21:46:21.951Z,94800.81
2023-04-13T21:49:07.489Z,94801.06
2023-04-13T21:51:52.708Z,94803.69
2023-04-13T21:54:38.101Z,94805.28
2023-04-13T21:57:23.292Z,94805.53
2023-04-13T22:00:09.383Z,94800.47
2023-04-13T22:02:55.497Z,94798.06
2023-04-13T22:05:41.008Z,94792.78
2023-04-13T22:08:26.329Z,94795.66
2023-04-13T22:11:11.925Z,94798.06
2023-04-13T22:13:56.991Z,94797.47
2023-04-13T22:16:42.480Z,94800.34
2023-04-13T22:19:27.741Z,94803.63
2023-04-13T22:22:13.111Z,94804.06
2023-04-13T22:24:58.197Z,94810.97
2023-04-13T22:27:43.964Z,94814.03
2023-04-13T22:30:29.686Z,94812.88
2023-04-13T22:33:15.317Z,94806.41
2023-04-13T22:36:00.452Z,94797.72
2023-04-13T22:38:49.810Z,94795.59
2023-04-13T22:41:35.193Z,94793.41
2023-04-13T22:44:20.599Z,94803.72
2023-04-13T22:47:06.044Z,94801.41
2023-04-13T22:49:51.554Z,94796.72
2023-04-13T22:52:36.750Z,94798.53
2023-04-13T22:55:22.073Z,94798.53
2023-04-13T22:58:07.485Z,94799.78
2023-04-13T23:00:52.778Z,94801.03
2023-04-13T23:03:38.184Z,94793.34
2023-04-13T23:06:23.479Z,94787.25
2023-04-13T23:09:09.037Z,94781.63
2023-04-13T23:11:54.361Z,94786.53
2023-04-13T23:14:40.444Z,94789.03
2023-04-13T23:17:25.505Z,94782.56
2023-04-13T23:20:11.283Z,94786.69
2023-04-13T23:22:56.594Z,94786.78
2023-04-13T23:25:41.864Z,94789.50
2023-04-13T23:28:27.091Z,94787.72
2023-04-13T23:31:12.454Z,94793.44
2023-04-13T23:33:57.710Z,94781.72
2023-04-13T23:36:43.109Z,94787.28
2023-04-13T23:39:28.344Z,94792.41
2023-04-13T23:42:13.771Z,94790.84
2023-04-13T23:44:59.048Z,94799.41
2023-04-13T23:47:44.326Z,94799.91
2023-04-13T23:50:29.568Z,94803.56
2023-04-13T23:53:14.793Z,94787.38
2023-04-13T23:56:00.268Z,94782.31
2023-04-13T23:58:45.540Z,94782.75
